sensor_id;sensor_type;location;lat;lon;timestamp;P1;durP1;ratioP1;P2;durP2;ratioP2
80732;SDS011;70130;44.534;18.678;2023-06-22T00:02:15;32.70;;;24.63;;
80732;SDS011;70130;44.534;18.678;2023-06-22T00:04:41;29.70;;;24.65;;
80732;SDS011;70130;44.534;18.678;2023-06-22T00:07:06;30.08;;;23.88;;
80732;SDS011;70130;44.534;18.678;2023-06-22T00:09:32;32.00;;;25.35;;
80732;SDS011;70130;44.534;18.678;2023-06-22T00:11:58;32.70;;;25.45;;
80732;SDS011;70130;44.534;18.678;2023-06-22T00:14:24;31.50;;;24.95;;
80732;SDS011;70130;44.534;18.678;2023-06-22T00:16:49;32.00;;;25.08;;
80732;SDS011;70130;44.534;18.678;2023-06-22T00:19:22;33.80;;;25.27;;
80732;SDS011;70130;44.534;18.678;2023-06-22T00:21:48;30.65;;;24.00;;
80732;SDS011;70130;44.534;18.678;2023-06-22T00:24:18;30.27;;;24.63;;
80732;SDS011;70130;44.534;18.678;2023-06-22T00:26:44;32.03;;;24.02;;
80732;SDS011;70130;44.534;18.678;2023-06-22T00:29:11;39.78;;;30.58;;
80732;SDS011;70130;44.534;18.678;2023-06-22T00:31:36;34.70;;;27.45;;
80732;SDS011;70130;44.534;18.678;2023-06-22T00:34:02;31.58;;;26.17;;
80732;SDS011;70130;44.534;18.678;2023-06-22T00:36:28;32.22;;;25.25;;
80732;SDS011;70130;44.534;18.678;2023-06-22T00:38:53;29.92;;;24.63;;
80732;SDS011;70130;44.534;18.678;2023-06-22T00:41:19;32.55;;;25.00;;
80732;SDS011;70130;44.534;18.678;2023-06-22T00:43:44;35.25;;;26.25;;
80732;SDS011;70130;44.534;18.678;2023-06-22T00:46:10;31.95;;;24.00;;
80732;SDS011;70130;44.534;18.678;2023-06-22T00:48:36;31.25;;;24.55;;
80732;SDS011;70130;44.534;18.678;2023-06-22T00:51:02;34.97;;;24.17;;
80732;SDS011;70130;44.534;18.678;2023-06-22T00:53:28;33.28;;;25.35;;
80732;SDS011;70130;44.534;18.678;2023-06-22T00:55:54;33.83;;;25.58;;
80732;SDS011;70130;44.534;18.678;2023-06-22T00:58:21;31.25;;;25.38;;
80732;SDS011;70130;44.534;18.678;2023-06-22T01:00:47;30.65;;;25.10;;
80732;SDS011;70130;44.534;18.678;2023-06-22T01:03:13;30.63;;;24.45;;
80732;SDS011;70130;44.534;18.678;2023-06-22T01:05:39;31.95;;;23.98;;
80732;SDS011;70130;44.534;18.678;2023-06-22T01:13:41;31.60;;;23.77;;
80732;SDS011;70130;44.534;18.678;2023-06-22T01:16:29;32.50;;;24.13;;
80732;SDS011;70130;44.534;18.678;2023-06-22T01:18:57;34.40;;;23.50;;
80732;SDS011;70130;44.534;18.678;2023-06-22T01:21:28;30.20;;;23.73;;
80732;SDS011;70130;44.534;18.678;2023-06-22T01:29:39;26.63;;;22.00;;
80732;SDS011;70130;44.534;18.678;2023-06-22T01:32:08;29.33;;;23.52;;
80732;SDS011;70130;44.534;18.678;2023-06-22T01:34:36;27.52;;;22.70;;
80732;SDS011;70130;44.534;18.678;2023-06-22T01:37:05;26.92;;;22.75;;
80732;SDS011;70130;44.534;18.678;2023-06-22T01:39:32;32.38;;;23.17;;
80732;SDS011;70130;44.534;18.678;2023-06-22T01:41:58;27.55;;;22.02;;
80732;SDS011;70130;44.534;18.678;2023-06-22T01:44:25;29.95;;;23.58;;
80732;SDS011;70130;44.534;18.678;2023-06-22T01:46:51;27.98;;;21.80;;
80732;SDS011;70130;44.534;18.678;2023-06-22T01:49:17;25.95;;;22.15;;
80732;SDS011;70130;44.534;18.678;2023-06-22T01:51:44;28.27;;;22.85;;
80732;SDS011;70130;44.534;18.678;2023-06-22T01:54:09;28.27;;;22.73;;
80732;SDS011;70130;44.534;18.678;2023-06-22T01:56:35;27.33;;;21.30;;
80732;SDS011;70130;44.534;18.678;2023-06-22T01:59:09;28.48;;;22.60;;
80732;SDS011;70130;44.534;18.678;2023-06-22T02:01:44;30.33;;;22.50;;
80732;SDS011;70130;44.534;18.678;2023-06-22T02:04:35;30.52;;;22.02;;
80732;SDS011;70130;44.534;18.678;2023-06-22T02:07:14;28.33;;;21.65;;
80732;SDS011;70130;44.534;18.678;2023-06-22T02:09:43;28.08;;;23.02;;
80732;SDS011;70130;44.534;18.678;2023-06-22T02:12:11;27.90;;;22.13;;
80732;SDS011;70130;44.534;18.678;2023-06-22T02:14:38;27.88;;;22.52;;
80732;SDS011;70130;44.534;18.678;2023-06-22T02:17:04;28.65;;;22.05;;
80732;SDS011;70130;44.534;18.678;2023-06-22T02:19:35;31.13;;;23.48;;
80732;SDS011;70130;44.534;18.678;2023-06-22T02:22:02;29.97;;;23.93;;
80732;SDS011;70130;44.534;18.678;2023-06-22T02:24:29;28.63;;;23.25;;
80732;SDS011;70130;44.534;18.678;2023-06-22T02:27:00;28.85;;;23.80;;
80732;SDS011;70130;44.534;18.678;2023-06-22T02:29:26;29.52;;;23.23;;
80732;SDS011;70130;44.534;18.678;2023-06-22T02:31:53;34.22;;;24.55;;
80732;SDS011;70130;44.534;18.678;2023-06-22T02:34:19;31.77;;;24.67;;
80732;SDS011;70130;44.534;18.678;2023-06-22T02:36:46;32.17;;;23.15;;
80732;SDS011;70130;44.534;18.678;2023-06-22T02:39:19;29.10;;;22.80;;
80732;SDS011;70130;44.534;18.678;2023-06-22T02:41:53;32.63;;;23.38;;
80732;SDS011;70130;44.534;18.678;2023-06-22T02:44:21;29.30;;;23.77;;
80732;SDS011;70130;44.534;18.678;2023-06-22T02:46:47;31.55;;;24.70;;
80732;SDS011;70130;44.534;18.678;2023-06-22T02:49:14;31.00;;;24.60;;
80732;SDS011;70130;44.534;18.678;2023-06-22T02:51:42;32.78;;;24.75;;
80732;SDS011;70130;44.534;18.678;2023-06-22T02:54:11;32.95;;;24.52;;
80732;SDS011;70130;44.534;18.678;2023-06-22T02:56:37;30.17;;;24.05;;
80732;SDS011;70130;44.534;18.678;2023-06-22T02:59:03;35.72;;;25.33;;
80732;SDS011;70130;44.534;18.678;2023-06-22T03:01:35;32.05;;;23.75;;
80732;SDS011;70130;44.534;18.678;2023-06-22T03:04:10;32.70;;;24.48;;
80732;SDS011;70130;44.534;18.678;2023-06-22T03:06:36;32.92;;;24.98;;
80732;SDS011;70130;44.534;18.678;2023-06-22T03:09:03;31.90;;;23.73;;
80732;SDS011;70130;44.534;18.678;2023-06-22T03:11:31;32.22;;;23.95;;
80732;SDS011;70130;44.534;18.678;2023-06-22T03:13:58;32.90;;;25.42;;
80732;SDS011;70130;44.534;18.678;2023-06-22T03:16:24;30.08;;;24.17;;
80732;SDS011;70130;44.534;18.678;2023-06-22T03:18:52;34.67;;;24.73;;
80732;SDS011;70130;44.534;18.678;2023-06-22T03:21:19;34.40;;;24.98;;
80732;SDS011;70130;44.534;18.678;2023-06-22T03:23:45;33.03;;;25.02;;
80732;SDS011;70130;44.534;18.678;2023-06-22T03:26:10;34.42;;;25.95;;
80732;SDS011;70130;44.534;18.678;2023-06-22T03:28:37;37.42;;;25.35;;
80732;SDS011;70130;44.534;18.678;2023-06-22T03:31:03;31.35;;;23.98;;
80732;SDS011;70130;44.534;18.678;2023-06-22T03:33:32;35.75;;;25.70;;
80732;SDS011;70130;44.534;18.678;2023-06-22T03:35:57;34.85;;;25.52;;
80732;SDS011;70130;44.534;18.678;2023-06-22T03:38:23;36.38;;;25.95;;
80732;SDS011;70130;44.534;18.678;2023-06-22T03:40:52;34.72;;;25.17;;
80732;SDS011;70130;44.534;18.678;2023-06-22T03:43:19;33.00;;;24.83;;
80732;SDS011;70130;44.534;18.678;2023-06-22T03:45:44;32.45;;;25.20;;
80732;SDS011;70130;44.534;18.678;2023-06-22T03:48:12;32.88;;;24.60;;
80732;SDS011;70130;44.534;18.678;2023-06-22T03:50:38;36.08;;;24.65;;
80732;SDS011;70130;44.534;18.678;2023-06-22T03:53:03;34.25;;;25.02;;
80732;SDS011;70130;44.534;18.678;2023-06-22T03:55:29;34.72;;;25.90;;
80732;SDS011;70130;44.534;18.678;2023-06-22T03:57:55;35.38;;;25.55;;
80732;SDS011;70130;44.534;18.678;2023-06-22T04:00:24;33.17;;;25.40;;
80732;SDS011;70130;44.534;18.678;2023-06-22T04:02:50;31.85;;;25.60;;
80732;SDS011;70130;44.534;18.678;2023-06-22T04:05:16;33.50;;;25.83;;
80732;SDS011;70130;44.534;18.678;2023-06-22T04:07:44;31.63;;;25.15;;
80732;SDS011;70130;44.534;18.678;2023-06-22T04:10:09;33.67;;;24.73;;
80732;SDS011;70130;44.534;18.678;2023-06-22T04:12:35;35.58;;;26.33;;
80732;SDS011;70130;44.534;18.678;2023-06-22T04:15:01;35.38;;;26.25;;
80732;SDS011;70130;44.534;18.678;2023-06-22T04:17:27;38.35;;;26.38;;
80732;SDS011;70130;44.534;18.678;2023-06-22T04:19:52;39.85;;;27.00;;
80732;SDS011;70130;44.534;18.678;2023-06-22T04:22:18;38.90;;;26.80;;
80732;SDS011;70130;44.534;18.678;2023-06-22T04:24:44;38.65;;;25.83;;
80732;SDS011;70130;44.534;18.678;2023-06-22T04:27:09;35.72;;;26.25;;
80732;SDS011;70130;44.534;18.678;2023-06-22T04:29:35;31.23;;;24.75;;
80732;SDS011;70130;44.534;18.678;2023-06-22T04:32:01;35.50;;;26.08;;
80732;SDS011;70130;44.534;18.678;2023-06-22T04:34:31;34.63;;;26.30;;
80732;SDS011;70130;44.534;18.678;2023-06-22T04:36:57;35.10;;;26.25;;
80732;SDS011;70130;44.534;18.678;2023-06-22T04:39:23;38.60;;;27.20;;
80732;SDS011;70130;44.534;18.678;2023-06-22T04:41:49;34.22;;;25.45;;
80732;SDS011;70130;44.534;18.678;2023-06-22T04:44:18;39.40;;;27.27;;
80732;SDS011;70130;44.534;18.678;2023-06-22T04:46:53;34.90;;;26.33;;
80732;SDS011;70130;44.534;18.678;2023-06-22T04:49:26;34.13;;;25.75;;
80732;SDS011;70130;44.534;18.678;2023-06-22T04:52:02;32.33;;;25.27;;
80732;SDS011;70130;44.534;18.678;2023-06-22T04:54:29;35.45;;;26.20;;
80732;SDS011;70130;44.534;18.678;2023-06-22T04:57:01;32.45;;;25.23;;
80732;SDS011;70130;44.534;18.678;2023-06-22T04:59:28;33.28;;;26.30;;
80732;SDS011;70130;44.534;18.678;2023-06-22T05:01:55;34.25;;;25.17;;
80732;SDS011;70130;44.534;18.678;2023-06-22T05:04:22;34.65;;;25.33;;
80732;SDS011;70130;44.534;18.678;2023-06-22T05:06:48;37.53;;;25.60;;
80732;SDS011;70130;44.534;18.678;2023-06-22T05:09:15;31.52;;;24.73;;
80732;SDS011;70130;44.534;18.678;2023-06-22T05:11:40;34.33;;;27.20;;
80732;SDS011;70130;44.534;18.678;2023-06-22T05:14:06;39.22;;;27.60;;
80732;SDS011;70130;44.534;18.678;2023-06-22T05:16:32;38.42;;;25.75;;
80732;SDS011;70130;44.534;18.678;2023-06-22T05:18:58;33.42;;;26.58;;
80732;SDS011;70130;44.534;18.678;2023-06-22T05:21:25;36.50;;;26.85;;
80732;SDS011;70130;44.534;18.678;2023-06-22T05:23:52;35.75;;;27.15;;
80732;SDS011;70130;44.534;18.678;2023-06-22T05:26:19;37.20;;;27.63;;
80732;SDS011;70130;44.534;18.678;2023-06-22T05:28:46;37.03;;;27.85;;
80732;SDS011;70130;44.534;18.678;2023-06-22T05:31:13;39.65;;;28.10;;
80732;SDS011;70130;44.534;18.678;2023-06-22T05:33:39;40.67;;;29.92;;
80732;SDS011;70130;44.534;18.678;2023-06-22T05:36:06;38.42;;;28.77;;
80732;SDS011;70130;44.534;18.678;2023-06-22T05:38:32;39.20;;;28.35;;
80732;SDS011;70130;44.534;18.678;2023-06-22T05:40:58;37.35;;;28.77;;
80732;SDS011;70130;44.534;18.678;2023-06-22T05:43:23;37.33;;;27.58;;
80732;SDS011;70130;44.534;18.678;2023-06-22T05:45:49;40.00;;;29.20;;
80732;SDS011;70130;44.534;18.678;2023-06-22T05:48:14;39.63;;;29.02;;
80732;SDS011;70130;44.534;18.678;2023-06-22T05:50:40;41.38;;;29.58;;
80732;SDS011;70130;44.534;18.678;2023-06-22T05:53:06;41.97;;;28.92;;
80732;SDS011;70130;44.534;18.678;2023-06-22T05:55:32;41.78;;;30.35;;
80732;SDS011;70130;44.534;18.678;2023-06-22T05:57:58;44.00;;;29.88;;
80732;SDS011;70130;44.534;18.678;2023-06-22T06:00:24;42.45;;;30.20;;
80732;SDS011;70130;44.534;18.678;2023-06-22T06:02:49;44.08;;;31.17;;
80732;SDS011;70130;44.534;18.678;2023-06-22T06:05:15;42.60;;;29.58;;
80732;SDS011;70130;44.534;18.678;2023-06-22T06:07:44;40.08;;;30.27;;
80732;SDS011;70130;44.534;18.678;2023-06-22T06:10:10;42.63;;;32.50;;
80732;SDS011;70130;44.534;18.678;2023-06-22T06:12:36;37.00;;;28.40;;
80732;SDS011;70130;44.534;18.678;2023-06-22T06:15:02;39.83;;;29.67;;
80732;SDS011;70130;44.534;18.678;2023-06-22T06:17:29;44.25;;;29.75;;
80732;SDS011;70130;44.534;18.678;2023-06-22T06:19:54;41.03;;;29.48;;
80732;SDS011;70130;44.534;18.678;2023-06-22T06:22:20;41.65;;;30.17;;
80732;SDS011;70130;44.534;18.678;2023-06-22T06:24:48;42.53;;;30.90;;
80732;SDS011;70130;44.534;18.678;2023-06-22T06:27:13;36.90;;;28.63;;
80732;SDS011;70130;44.534;18.678;2023-06-22T06:29:39;46.60;;;32.53;;
80732;SDS011;70130;44.534;18.678;2023-06-22T06:32:05;42.50;;;30.67;;
80732;SDS011;70130;44.534;18.678;2023-06-22T06:34:31;42.40;;;31.88;;
80732;SDS011;70130;44.534;18.678;2023-06-22T06:36:56;47.78;;;33.78;;
80732;SDS011;70130;44.534;18.678;2023-06-22T06:39:22;59.92;;;49.25;;
80732;SDS011;70130;44.534;18.678;2023-06-22T06:41:48;44.05;;;32.92;;
80732;SDS011;70130;44.534;18.678;2023-06-22T06:44:14;45.78;;;32.30;;
80732;SDS011;70130;44.534;18.678;2023-06-22T06:46:40;48.55;;;33.47;;
80732;SDS011;70130;44.534;18.678;2023-06-22T06:49:07;44.78;;;34.35;;
80732;SDS011;70130;44.534;18.678;2023-06-22T06:51:32;48.70;;;34.83;;
80732;SDS011;70130;44.534;18.678;2023-06-22T06:53:58;44.53;;;33.50;;
80732;SDS011;70130;44.534;18.678;2023-06-22T06:56:24;46.85;;;33.22;;
80732;SDS011;70130;44.534;18.678;2023-06-22T06:58:50;47.33;;;34.03;;
80732;SDS011;70130;44.534;18.678;2023-06-22T07:01:16;45.88;;;32.05;;
80732;SDS011;70130;44.534;18.678;2023-06-22T07:03:41;45.42;;;31.02;;
80732;SDS011;70130;44.534;18.678;2023-06-22T07:06:08;42.33;;;31.60;;
80732;SDS011;70130;44.534;18.678;2023-06-22T07:08:33;44.95;;;33.40;;
80732;SDS011;70130;44.534;18.678;2023-06-22T07:11:01;41.65;;;31.80;;
80732;SDS011;70130;44.534;18.678;2023-06-22T07:13:27;40.65;;;30.63;;
80732;SDS011;70130;44.534;18.678;2023-06-22T07:15:53;43.28;;;31.60;;
80732;SDS011;70130;44.534;18.678;2023-06-22T07:18:19;51.03;;;32.40;;
80732;SDS011;70130;44.534;18.678;2023-06-22T07:20:44;41.40;;;31.48;;
80732;SDS011;70130;44.534;18.678;2023-06-22T07:23:10;39.60;;;30.58;;
80732;SDS011;70130;44.534;18.678;2023-06-22T07:25:36;45.00;;;32.35;;
80732;SDS011;70130;44.534;18.678;2023-06-22T07:28:03;41.83;;;31.67;;
80732;SDS011;70130;44.534;18.678;2023-06-22T07:30:29;43.97;;;30.63;;
80732;SDS011;70130;44.534;18.678;2023-06-22T07:32:56;44.55;;;31.80;;
80732;SDS011;70130;44.534;18.678;2023-06-22T07:35:23;41.97;;;31.48;;
80732;SDS011;70130;44.534;18.678;2023-06-22T07:37:49;45.25;;;31.38;;
80732;SDS011;70130;44.534;18.678;2023-06-22T07:40:15;39.33;;;29.23;;
80732;SDS011;70130;44.534;18.678;2023-06-22T07:42:40;40.25;;;30.60;;
80732;SDS011;70130;44.534;18.678;2023-06-22T07:45:07;38.53;;;29.65;;
80732;SDS011;70130;44.534;18.678;2023-06-22T07:47:33;41.83;;;28.60;;
80732;SDS011;70130;44.534;18.678;2023-06-22T07:50:00;37.97;;;29.30;;
80732;SDS011;70130;44.534;18.678;2023-06-22T07:52:27;39.13;;;29.58;;
80732;SDS011;70130;44.534;18.678;2023-06-22T07:54:53;37.22;;;29.33;;
80732;SDS011;70130;44.534;18.678;2023-06-22T07:57:19;43.88;;;30.80;;
80732;SDS011;70130;44.534;18.678;2023-06-22T07:59:45;42.03;;;30.58;;
80732;SDS011;70130;44.534;18.678;2023-06-22T08:02:11;43.85;;;31.67;;
80732;SDS011;70130;44.534;18.678;2023-06-22T08:04:37;37.72;;;29.45;;
80732;SDS011;70130;44.534;18.678;2023-06-22T08:07:03;34.35;;;28.40;;
80732;SDS011;70130;44.534;18.678;2023-06-22T08:09:29;47.90;;;31.92;;
80732;SDS011;70130;44.534;18.678;2023-06-22T08:11:56;38.88;;;30.52;;
80732;SDS011;70130;44.534;18.678;2023-06-22T08:14:22;48.63;;;38.90;;
80732;SDS011;70130;44.534;18.678;2023-06-22T08:16:48;39.63;;;29.67;;
80732;SDS011;70130;44.534;18.678;2023-06-22T08:19:14;43.63;;;30.67;;
80732;SDS011;70130;44.534;18.678;2023-06-22T08:21:40;37.28;;;28.20;;
80732;SDS011;70130;44.534;18.678;2023-06-22T08:24:05;37.97;;;28.98;;
80732;SDS011;70130;44.534;18.678;2023-06-22T08:26:33;36.83;;;27.48;;
80732;SDS011;70130;44.534;18.678;2023-06-22T08:29:01;37.42;;;29.13;;
80732;SDS011;70130;44.534;18.678;2023-06-22T08:31:30;38.10;;;29.63;;
80732;SDS011;70130;44.534;18.678;2023-06-22T08:33:56;36.42;;;28.67;;
80732;SDS011;70130;44.534;18.678;2023-06-22T08:36:21;39.30;;;28.83;;
80732;SDS011;70130;44.534;18.678;2023-06-22T08:38:47;35.88;;;28.45;;
80732;SDS011;70130;44.534;18.678;2023-06-22T08:41:19;40.92;;;29.33;;
80732;SDS011;70130;44.534;18.678;2023-06-22T08:43:44;37.83;;;27.73;;
80732;SDS011;70130;44.534;18.678;2023-06-22T08:46:10;30.60;;;23.20;;
80732;SDS011;70130;44.534;18.678;2023-06-22T08:48:36;31.75;;;23.40;;
80732;SDS011;70130;44.534;18.678;2023-06-22T08:51:02;25.45;;;22.13;;
80732;SDS011;70130;44.534;18.678;2023-06-22T08:53:28;28.65;;;22.45;;
80732;SDS011;70130;44.534;18.678;2023-06-22T08:55:54;30.38;;;23.85;;
80732;SDS011;70130;44.534;18.678;2023-06-22T08:58:19;28.33;;;24.10;;
80732;SDS011;70130;44.534;18.678;2023-06-22T09:00:46;29.58;;;23.83;;
80732;SDS011;70130;44.534;18.678;2023-06-22T09:03:12;30.83;;;25.52;;
80732;SDS011;70130;44.534;18.678;2023-06-22T09:05:38;36.10;;;24.55;;
80732;SDS011;70130;44.534;18.678;2023-06-22T09:08:04;30.70;;;24.52;;
80732;SDS011;70130;44.534;18.678;2023-06-22T09:10:30;28.90;;;23.83;;
80732;SDS011;70130;44.534;18.678;2023-06-22T09:12:56;28.38;;;23.85;;
80732;SDS011;70130;44.534;18.678;2023-06-22T09:15:22;33.75;;;25.08;;
80732;SDS011;70130;44.534;18.678;2023-06-22T09:17:48;32.70;;;23.95;;
80732;SDS011;70130;44.534;18.678;2023-06-22T09:20:14;31.05;;;23.50;;
80732;SDS011;70130;44.534;18.678;2023-06-22T09:22:39;30.33;;;23.70;;
80732;SDS011;70130;44.534;18.678;2023-06-22T09:25:05;29.38;;;22.95;;
80732;SDS011;70130;44.534;18.678;2023-06-22T09:27:31;31.50;;;23.80;;
80732;SDS011;70130;44.534;18.678;2023-06-22T09:29:57;28.27;;;22.92;;
80732;SDS011;70130;44.534;18.678;2023-06-22T09:32:24;27.77;;;22.17;;
80732;SDS011;70130;44.534;18.678;2023-06-22T09:34:50;24.95;;;22.10;;
80732;SDS011;70130;44.534;18.678;2023-06-22T09:37:16;26.77;;;21.88;;
80732;SDS011;70130;44.534;18.678;2023-06-22T09:39:42;28.55;;;22.85;;
80732;SDS011;70130;44.534;18.678;2023-06-22T09:42:07;27.75;;;23.33;;
80732;SDS011;70130;44.534;18.678;2023-06-22T09:44:33;27.58;;;20.27;;
80732;SDS011;70130;44.534;18.678;2023-06-22T09:46:59;26.17;;;22.13;;
80732;SDS011;70130;44.534;18.678;2023-06-22T09:49:25;27.05;;;21.30;;
80732;SDS011;70130;44.534;18.678;2023-06-22T09:51:51;24.55;;;18.40;;
80732;SDS011;70130;44.534;18.678;2023-06-22T09:54:17;25.98;;;18.65;;
80732;SDS011;70130;44.534;18.678;2023-06-22T09:56:43;21.15;;;17.73;;
80732;SDS011;70130;44.534;18.678;2023-06-22T09:59:09;25.13;;;17.40;;
80732;SDS011;70130;44.534;18.678;2023-06-22T10:01:34;22.55;;;18.55;;
80732;SDS011;70130;44.534;18.678;2023-06-22T10:04:01;21.10;;;18.60;;
80732;SDS011;70130;44.534;18.678;2023-06-22T10:06:27;18.77;;;16.73;;
80732;SDS011;70130;44.534;18.678;2023-06-22T10:08:53;23.15;;;16.50;;
80732;SDS011;70130;44.534;18.678;2023-06-22T10:11:18;21.73;;;16.50;;
80732;SDS011;70130;44.534;18.678;2023-06-22T10:13:44;20.83;;;17.10;;
80732;SDS011;70130;44.534;18.678;2023-06-22T10:16:10;24.08;;;18.40;;
80732;SDS011;70130;44.534;18.678;2023-06-22T10:18:36;22.98;;;19.70;;
80732;SDS011;70130;44.534;18.678;2023-06-22T10:21:01;23.58;;;19.70;;
80732;SDS011;70130;44.534;18.678;2023-06-22T10:23:27;28.83;;;21.00;;
80732;SDS011;70130;44.534;18.678;2023-06-22T10:25:52;24.25;;;18.50;;
80732;SDS011;70130;44.534;18.678;2023-06-22T10:28:18;26.02;;;20.13;;
80732;SDS011;70130;44.534;18.678;2023-06-22T10:30:44;26.60;;;17.50;;
80732;SDS011;70130;44.534;18.678;2023-06-22T10:33:09;23.33;;;18.77;;
80732;SDS011;70130;44.534;18.678;2023-06-22T10:35:36;22.13;;;18.98;;
80732;SDS011;70130;44.534;18.678;2023-06-22T10:41:50;24.98;;;18.60;;
80732;SDS011;70130;44.534;18.678;2023-06-22T10:44:15;24.95;;;19.15;;
80732;SDS011;70130;44.534;18.678;2023-06-22T10:46:42;21.25;;;18.60;;
80732;SDS011;70130;44.534;18.678;2023-06-22T10:49:08;22.48;;;18.85;;
80732;SDS011;70130;44.534;18.678;2023-06-22T10:51:34;23.73;;;18.95;;
80732;SDS011;70130;44.534;18.678;2023-06-22T10:53:59;29.83;;;22.70;;
80732;SDS011;70130;44.534;18.678;2023-06-22T10:56:25;20.83;;;18.13;;
80732;SDS011;70130;44.534;18.678;2023-06-22T10:58:51;29.95;;;17.58;;
80732;SDS011;70130;44.534;18.678;2023-06-22T11:01:17;26.52;;;17.42;;
80732;SDS011;70130;44.534;18.678;2023-06-22T11:03:42;25.45;;;17.67;;
80732;SDS011;70130;44.534;18.678;2023-06-22T11:06:08;23.55;;;17.58;;
80732;SDS011;70130;44.534;18.678;2023-06-22T11:08:34;25.77;;;17.08;;
80732;SDS011;70130;44.534;18.678;2023-06-22T11:10:59;27.33;;;17.83;;
80732;SDS011;70130;44.534;18.678;2023-06-22T11:13:25;22.52;;;16.67;;
80732;SDS011;70130;44.534;18.678;2023-06-22T11:15:51;22.42;;;17.77;;
80732;SDS011;70130;44.534;18.678;2023-06-22T11:18:16;26.85;;;16.88;;
80732;SDS011;70130;44.534;18.678;2023-06-22T11:20:42;25.73;;;17.17;;
80732;SDS011;70130;44.534;18.678;2023-06-22T11:23:07;23.98;;;17.65;;
80732;SDS011;70130;44.534;18.678;2023-06-22T11:25:33;24.05;;;16.70;;
80732;SDS011;70130;44.534;18.678;2023-06-22T11:28:06;20.30;;;14.88;;
80732;SDS011;70130;44.534;18.678;2023-06-22T11:30:32;17.17;;;14.13;;
80732;SDS011;70130;44.534;18.678;2023-06-22T11:32:58;23.65;;;16.30;;
80732;SDS011;70130;44.534;18.678;2023-06-22T11:35:24;20.98;;;15.43;;
80732;SDS011;70130;44.534;18.678;2023-06-22T11:37:50;20.48;;;13.88;;
80732;SDS011;70130;44.534;18.678;2023-06-22T11:40:16;18.65;;;14.80;;
80732;SDS011;70130;44.534;18.678;2023-06-22T11:42:43;20.85;;;15.23;;
80732;SDS011;70130;44.534;18.678;2023-06-22T11:45:09;19.23;;;14.15;;
80732;SDS011;70130;44.534;18.678;2023-06-22T11:47:35;19.70;;;13.57;;
80732;SDS011;70130;44.534;18.678;2023-06-22T11:50:02;17.02;;;12.02;;
80732;SDS011;70130;44.534;18.678;2023-06-22T11:52:28;16.05;;;11.35;;
80732;SDS011;70130;44.534;18.678;2023-06-22T11:54:54;17.45;;;12.48;;
80732;SDS011;70130;44.534;18.678;2023-06-22T11:57:19;17.70;;;13.60;;
80732;SDS011;70130;44.534;18.678;2023-06-22T11:59:45;16.88;;;12.25;;
80732;SDS011;70130;44.534;18.678;2023-06-22T12:02:11;17.42;;;13.48;;
80732;SDS011;70130;44.534;18.678;2023-06-22T12:04:36;14.70;;;12.70;;
80732;SDS011;70130;44.534;18.678;2023-06-22T12:07:03;18.08;;;13.00;;
80732;SDS011;70130;44.534;18.678;2023-06-22T12:09:28;19.83;;;14.38;;
80732;SDS011;70130;44.534;18.678;2023-06-22T12:11:57;17.67;;;13.77;;
80732;SDS011;70130;44.534;18.678;2023-06-22T12:14:27;16.27;;;12.63;;
80732;SDS011;70130;44.534;18.678;2023-06-22T12:16:52;16.83;;;12.43;;
80732;SDS011;70130;44.534;18.678;2023-06-22T12:19:18;18.25;;;15.15;;
80732;SDS011;70130;44.534;18.678;2023-06-22T12:21:44;19.20;;;13.20;;
80732;SDS011;70130;44.534;18.678;2023-06-22T12:24:13;16.53;;;13.57;;
80732;SDS011;70130;44.534;18.678;2023-06-22T12:26:38;17.02;;;13.50;;
80732;SDS011;70130;44.534;18.678;2023-06-22T12:29:04;18.77;;;13.38;;
80732;SDS011;70130;44.534;18.678;2023-06-22T12:31:30;32.70;;;14.60;;
80732;SDS011;70130;44.534;18.678;2023-06-22T12:33:55;16.83;;;11.80;;
80732;SDS011;70130;44.534;18.678;2023-06-22T12:36:21;17.50;;;12.52;;
80732;SDS011;70130;44.534;18.678;2023-06-22T12:38:47;16.23;;;12.48;;
80732;SDS011;70130;44.534;18.678;2023-06-22T12:41:13;16.75;;;12.32;;
80732;SDS011;70130;44.534;18.678;2023-06-22T12:43:40;14.98;;;11.05;;
80732;SDS011;70130;44.534;18.678;2023-06-22T12:46:06;18.75;;;11.48;;
80732;SDS011;70130;44.534;18.678;2023-06-22T12:48:31;18.70;;;11.60;;
80732;SDS011;70130;44.534;18.678;2023-06-22T12:50:57;15.98;;;11.82;;
80732;SDS011;70130;44.534;18.678;2023-06-22T12:53:22;16.75;;;11.43;;
80732;SDS011;70130;44.534;18.678;2023-06-22T12:55:49;17.13;;;13.50;;
80732;SDS011;70130;44.534;18.678;2023-06-22T12:58:14;19.33;;;14.30;;
80732;SDS011;70130;44.534;18.678;2023-06-22T13:00:40;17.88;;;15.38;;
80732;SDS011;70130;44.534;18.678;2023-06-22T13:03:05;18.02;;;14.65;;
80732;SDS011;70130;44.534;18.678;2023-06-22T13:05:31;20.25;;;15.80;;
80732;SDS011;70130;44.534;18.678;2023-06-22T13:08:00;20.80;;;16.42;;
80732;SDS011;70130;44.534;18.678;2023-06-22T13:10:25;18.75;;;15.35;;
80732;SDS011;70130;44.534;18.678;2023-06-22T13:12:51;19.23;;;16.08;;
80732;SDS011;70130;44.534;18.678;2023-06-22T13:15:25;17.02;;;14.45;;
80732;SDS011;70130;44.534;18.678;2023-06-22T13:17:52;17.92;;;14.98;;
80732;SDS011;70130;44.534;18.678;2023-06-22T13:20:18;20.75;;;15.25;;
80732;SDS011;70130;44.534;18.678;2023-06-22T13:22:44;20.00;;;14.65;;
80732;SDS011;70130;44.534;18.678;2023-06-22T13:25:09;20.80;;;14.80;;
80732;SDS011;70130;44.534;18.678;2023-06-22T13:27:40;18.27;;;14.48;;
80732;SDS011;70130;44.534;18.678;2023-06-22T13:30:07;18.27;;;15.30;;
80732;SDS011;70130;44.534;18.678;2023-06-22T13:32:33;19.05;;;14.18;;
80732;SDS011;70130;44.534;18.678;2023-06-22T13:34:59;19.40;;;14.70;;
80732;SDS011;70130;44.534;18.678;2023-06-22T13:37:25;16.40;;;13.75;;
80732;SDS011;70130;44.534;18.678;2023-06-22T13:39:51;19.85;;;15.15;;
80732;SDS011;70130;44.534;18.678;2023-06-22T13:42:17;19.00;;;15.55;;
80732;SDS011;70130;44.534;18.678;2023-06-22T13:44:42;18.17;;;14.73;;
80732;SDS011;70130;44.534;18.678;2023-06-22T13:47:08;27.30;;;16.55;;
80732;SDS011;70130;44.534;18.678;2023-06-22T13:49:34;18.45;;;14.43;;
80732;SDS011;70130;44.534;18.678;2023-06-22T13:52:00;17.98;;;15.35;;
80732;SDS011;70130;44.534;18.678;2023-06-22T13:54:25;20.00;;;14.52;;
80732;SDS011;70130;44.534;18.678;2023-06-22T13:56:51;20.33;;;15.20;;
80732;SDS011;70130;44.534;18.678;2023-06-22T13:59:17;18.58;;;15.73;;
80732;SDS011;70130;44.534;18.678;2023-06-22T14:01:42;20.85;;;16.45;;
80732;SDS011;70130;44.534;18.678;2023-06-22T14:04:08;20.92;;;16.05;;
80732;SDS011;70130;44.534;18.678;2023-06-22T14:06:34;19.25;;;14.07;;
80732;SDS011;70130;44.534;18.678;2023-06-22T14:08:59;16.05;;;12.00;;
80732;SDS011;70130;44.534;18.678;2023-06-22T14:11:25;19.35;;;13.18;;
80732;SDS011;70130;44.534;18.678;2023-06-22T14:13:51;16.88;;;13.75;;
80732;SDS011;70130;44.534;18.678;2023-06-22T14:16:17;20.35;;;14.40;;
80732;SDS011;70130;44.534;18.678;2023-06-22T14:18:42;20.15;;;14.13;;
80732;SDS011;70130;44.534;18.678;2023-06-22T14:21:08;18.20;;;13.43;;